createdAt,value
2022-07-28T00:01:24.719Z,2.63
2022-07-28T00:03:53.022Z,2.60
2022-07-28T00:06:21.178Z,3.43
2022-07-28T00:08:49.343Z,3.63
2022-07-28T00:11:18.993Z,3.23
2022-07-28T00:13:47.173Z,2.70
2022-07-28T00:16:15.431Z,2.40
2022-07-28T00:18:43.737Z,2.50
2022-07-28T00:21:12.070Z,2.17
2022-07-28T00:23:40.316Z,2.20
2022-07-28T00:26:09.220Z,1.87
2022-07-28T00:28:38.815Z,2.07
2022-07-28T00:31:11.936Z,2.20
2022-07-28T00:33:41.542Z,2.37
2022-07-28T00:36:11.592Z,2.03
2022-07-28T00:38:40.921Z,2.10
2022-07-28T00:41:12.245Z,2.00
2022-07-28T00:43:42.312Z,2.40
2022-07-28T00:46:10.762Z,2.10
2022-07-28T00:48:40.017Z,2.20
2022-07-28T00:51:09.031Z,2.50
2022-07-28T00:53:37.514Z,2.10
2022-07-28T00:56:06.942Z,1.97
2022-07-28T00:58:36.447Z,2.13
2022-07-28T01:01:06.164Z,2.00
2022-07-28T01:03:35.839Z,2.10
2022-07-28T01:06:11.821Z,2.20
2022-07-28T01:08:47.496Z,2.20
2022-07-28T01:11:18.722Z,2.30
2022-07-28T01:13:56.261Z,2.50
2022-07-28T01:16:25.838Z,2.23
2022-07-28T01:18:58.488Z,2.00
2022-07-28T01:21:27.734Z,2.50
2022-07-28T01:24:03.646Z,1.90
2022-07-28T01:26:54.308Z,2.80
2022-07-28T01:29:32.037Z,2.23
2022-07-28T01:32:04.632Z,2.10
2022-07-28T01:34:34.661Z,2.10
2022-07-28T01:37:05.780Z,2.23
2022-07-28T01:39:35.590Z,2.87
2022-07-28T01:42:03.812Z,2.47
2022-07-28T01:44:32.038Z,2.67
2022-07-28T01:47:01.759Z,2.60
2022-07-28T01:49:29.978Z,2.43
2022-07-28T01:51:58.216Z,2.50
2022-07-28T01:54:28.554Z,2.20
2022-07-28T01:56:56.899Z,2.20
2022-07-28T01:59:25.091Z,2.30
2022-07-28T02:01:53.410Z,2.30
2022-07-28T02:04:23.168Z,2.50
2022-07-28T02:06:51.423Z,2.23
2022-07-28T02:09:19.628Z,2.20
2022-07-28T02:11:47.948Z,2.27
2022-07-28T02:14:17.765Z,2.27
2022-07-28T02:16:48.435Z,2.33
2022-07-28T02:19:16.657Z,2.40
2022-07-28T02:21:47.753Z,2.83
2022-07-28T02:24:16.388Z,2.57
2022-07-28T02:26:48.229Z,2.20
2022-07-28T02:29:40.509Z,2.37
2022-07-28T02:32:24.073Z,2.23
2022-07-28T02:34:57.166Z,2.40
2022-07-28T02:37:27.491Z,2.53
2022-07-28T02:40:00.045Z,2.57
2022-07-28T02:42:30.110Z,2.33
2022-07-28T02:44:59.912Z,2.43
2022-07-28T02:47:31.604Z,2.50
2022-07-28T02:49:59.932Z,2.40
2022-07-28T02:52:29.487Z,2.70
2022-07-28T02:54:58.294Z,2.60
2022-07-28T02:57:26.591Z,2.77
2022-07-28T02:59:55.189Z,2.70
2022-07-28T03:02:23.459Z,2.60
2022-07-28T03:04:59.030Z,2.90
2022-07-28T03:07:29.232Z,2.53
2022-07-28T03:09:57.955Z,2.40
2022-07-28T03:12:26.180Z,2.70
2022-07-28T03:14:54.460Z,2.73
2022-07-28T03:17:22.814Z,2.63
2022-07-28T03:19:51.071Z,2.93
2022-07-28T03:22:19.298Z,2.63
2022-07-28T03:24:52.087Z,2.57
2022-07-28T03:27:24.300Z,2.70
2022-07-28T03:29:54.291Z,2.10
2022-07-28T03:32:23.111Z,2.93
2022-07-28T03:34:52.509Z,2.60
2022-07-28T03:37:25.241Z,2.50
2022-07-28T03:39:55.466Z,2.50
2022-07-28T03:42:23.652Z,2.90
2022-07-28T03:44:51.917Z,2.70
2022-07-28T03:47:23.117Z,2.50
2022-07-28T03:49:51.446Z,2.27
2022-07-28T03:52:19.683Z,2.43
2022-07-28T03:54:47.854Z,2.47
2022-07-28T03:57:17.392Z,2.77
2022-07-28T03:59:45.613Z,2.50
2022-07-28T04:02:13.863Z,2.57
2022-07-28T04:04:42.123Z,2.57
2022-07-28T04:07:10.329Z,2.90
2022-07-28T04:09:38.466Z,3.03
2022-07-28T04:12:07.055Z,2.40
2022-07-28T04:14:36.658Z,3.20
2022-07-28T04:17:04.930Z,2.73
2022-07-28T04:19:33.191Z,2.30
2022-07-28T04:22:01.608Z,2.80
2022-07-28T04:24:29.768Z,2.63
2022-07-28T04:26:58.028Z,2.47
2022-07-28T04:29:27.364Z,2.90
2022-07-28T04:31:57.288Z,3.07
2022-07-28T04:34:25.488Z,2.83
2022-07-28T04:36:55.487Z,2.60
2022-07-28T04:39:24.970Z,3.23
2022-07-28T04:41:53.275Z,2.80
2022-07-28T04:44:21.480Z,2.87
2022-07-28T04:46:49.668Z,2.93
2022-07-28T04:49:19.209Z,2.60
2022-07-28T04:51:50.670Z,2.77
2022-07-28T04:54:23.091Z,3.17
2022-07-28T04:56:54.413Z,3.03
2022-07-28T04:59:24.158Z,3.07
2022-07-28T05:01:53.523Z,3.30
2022-07-28T05:04:23.137Z,3.60
2022-07-28T05:06:51.405Z,3.10
2022-07-28T05:09:19.583Z,3.33
2022-07-28T05:11:47.854Z,2.90
2022-07-28T05:14:16.273Z,3.80
2022-07-28T05:16:44.749Z,3.80
2022-07-28T05:19:14.430Z,3.57
2022-07-28T05:21:44.056Z,3.73
2022-07-28T05:24:14.198Z,3.90
2022-07-28T05:26:42.760Z,4.70
2022-07-28T05:29:10.941Z,3.70
2022-07-28T05:31:39.404Z,3.67
2022-07-28T05:34:07.644Z,4.20
2022-07-28T05:36:36.784Z,4.50
2022-07-28T05:39:06.363Z,3.93
2022-07-28T05:41:35.808Z,4.10
2022-07-28T05:44:04.159Z,3.97
2022-07-28T05:46:32.545Z,3.77
2022-07-28T05:49:00.805Z,3.97
2022-07-28T05:51:29.165Z,4.20
2022-07-28T05:53:57.288Z,4.40
2022-07-28T05:56:26.873Z,4.33
2022-07-28T05:58:55.199Z,4.20
2022-07-28T06:01:23.465Z,4.67
2022-07-28T06:04:10.019Z,4.03
2022-07-28T06:06:41.547Z,3.90
2022-07-28T06:09:09.761Z,3.90
2022-07-28T06:11:39.485Z,4.57
2022-07-28T06:14:07.707Z,3.63
2022-07-28T06:16:35.925Z,4.17
2022-07-28T06:19:04.112Z,4.40
2022-07-28T06:21:33.133Z,3.10
2022-07-28T06:24:01.590Z,3.20
2022-07-28T06:26:29.794Z,3.40
2022-07-28T06:28:59.431Z,3.20
2022-07-28T06:31:27.689Z,3.67
2022-07-28T06:33:56.025Z,3.50
2022-07-28T06:36:24.252Z,3.90
2022-07-28T06:38:52.436Z,3.50
2022-07-28T06:41:20.662Z,3.80
2022-07-28T06:43:48.887Z,3.47
2022-07-28T06:46:19.813Z,3.20
2022-07-28T06:48:48.278Z,4.00
2022-07-28T06:51:19.351Z,3.37
2022-07-28T06:53:48.687Z,3.30
2022-07-28T06:56:17.269Z,3.20
2022-07-28T06:58:46.885Z,3.40
2022-07-28T07:01:15.753Z,3.33
2022-07-28T07:03:45.490Z,2.80
2022-07-28T07:06:13.898Z,2.90
2022-07-28T07:08:42.027Z,2.53
2022-07-28T07:11:10.186Z,2.33
2022-07-28T07:13:38.364Z,2.97
2022-07-28T07:16:06.775Z,2.67
2022-07-28T07:18:34.992Z,2.73
2022-07-28T07:21:04.723Z,2.63
2022-07-28T07:23:32.872Z,1.90
2022-07-28T07:26:01.123Z,2.37
2022-07-28T07:28:29.289Z,2.70
2022-07-28T07:30:57.588Z,2.43
2022-07-28T07:33:26.047Z,2.10
2022-07-28T07:35:54.239Z,2.67
2022-07-28T07:38:28.816Z,2.97
2022-07-28T07:40:57.340Z,2.93
2022-07-28T07:43:25.522Z,2.63
2022-07-28T07:45:54.799Z,2.73
2022-07-28T07:48:22.946Z,2.17
2022-07-28T07:50:53.975Z,2.70
2022-07-28T07:53:24.377Z,2.50
2022-07-28T07:55:52.668Z,2.67
2022-07-28T07:58:20.803Z,2.67
2022-07-28T08:00:48.996Z,2.83
2022-07-28T08:03:17.473Z,3.40
2022-07-28T08:05:51.744Z,3.03
2022-07-28T08:08:19.882Z,3.03
2022-07-28T08:10:51.250Z,3.27
2022-07-28T08:13:20.466Z,3.33
2022-07-28T08:15:48.668Z,3.20
2022-07-28T08:18:17.006Z,2.80
2022-07-28T08:20:45.179Z,2.93
2022-07-28T08:23:13.350Z,2.57
2022-07-28T08:25:41.494Z,3.00
2022-07-28T08:28:11.025Z,3.20
2022-07-28T08:30:40.364Z,3.70
2022-07-28T08:33:08.599Z,4.63
2022-07-28T08:35:36.824Z,5.07
2022-07-28T08:38:05.478Z,4.43
2022-07-28T08:40:33.644Z,3.60
2022-07-28T08:43:04.781Z,3.37
2022-07-28T08:45:37.016Z,3.80
2022-07-28T08:48:08.122Z,3.97
2022-07-28T08:50:37.278Z,3.50
2022-07-28T08:53:05.442Z,3.40
2022-07-28T08:55:33.792Z,3.20
2022-07-28T08:58:01.964Z,4.10
2022-07-28T09:00:30.281Z,3.17
2022-07-28T09:02:59.902Z,3.17
2022-07-28T09:05:28.261Z,3.27
2022-07-28T09:07:56.461Z,3.50
2022-07-28T09:10:24.801Z,2.97
2022-07-28T09:12:53.013Z,3.20
2022-07-28T09:15:21.323Z,3.03
2022-07-28T09:17:49.465Z,3.58
2022-07-28T09:20:19.046Z,2.63
2022-07-28T09:23:00.041Z,2.90
2022-07-28T09:25:28.240Z,3.22
2022-07-28T09:27:56.397Z,2.85
2022-07-28T09:30:31.393Z,2.70
2022-07-28T09:33:41.800Z,2.28
2022-07-28T09:36:05.160Z,2.70
2022-07-28T09:38:42.113Z,2.60
2022-07-28T09:41:10.458Z,2.70
2022-07-28T09:43:39.378Z,3.10
2022-07-28T09:46:09.303Z,2.70
2022-07-28T09:48:37.930Z,2.70
2022-07-28T09:51:14.790Z,2.90
2022-07-28T09:53:43.120Z,2.80
2022-07-28T09:56:11.821Z,2.80
2022-07-28T09:58:40.615Z,2.90
2022-07-28T10:01:11.493Z,2.75
2022-07-28T10:03:40.294Z,2.88
2022-07-28T10:06:09.642Z,3.22
2022-07-28T10:08:43.733Z,2.80
2022-07-28T10:11:12.664Z,3.30
2022-07-28T10:13:57.747Z,3.35
2022-07-28T10:16:26.787Z,3.13
2022-07-28T10:18:55.282Z,3.80
2022-07-28T10:21:25.278Z,3.35
2022-07-28T10:23:55.607Z,3.13
2022-07-28T10:26:27.303Z,5.45
2022-07-28T10:28:55.623Z,3.15
2022-07-28T10:31:36.051Z,3.45
2022-07-28T10:34:04.579Z,3.38
2022-07-28T10:36:32.882Z,2.88
2022-07-28T10:39:05.289Z,3.33
2022-07-28T10:41:38.894Z,2.60
2022-07-28T10:44:07.280Z,2.83
2022-07-28T10:46:35.628Z,2.78
2022-07-28T10:49:05.229Z,2.47
2022-07-28T10:51:53.880Z,2.78
2022-07-28T10:54:29.921Z,2.60
2022-07-28T10:56:58.993Z,2.60
2022-07-28T10:59:58.128Z,3.30
2022-07-28T11:02:46.665Z,2.42
2022-07-28T11:05:34.627Z,3.17
2022-07-28T11:08:04.407Z,3.03
2022-07-28T11:10:47.951Z,2.88
2022-07-28T11:13:30.085Z,2.50
2022-07-28T11:16:19.727Z,2.40
2022-07-28T11:19:40.151Z,2.60
2022-07-28T11:22:25.109Z,3.03
2022-07-28T11:25:20.775Z,2.70
2022-07-28T11:28:12.555Z,2.55
2022-07-28T11:30:54.352Z,3.20
2022-07-28T11:33:25.064Z,2.63
2022-07-28T11:36:00.015Z,3.22
2022-07-28T11:38:28.681Z,2.83
2022-07-28T11:40:57.780Z,2.90
2022-07-28T11:43:39.534Z,2.70
2022-07-28T11:46:23.616Z,2.60
2022-07-28T11:49:19.692Z,2.67
2022-07-28T11:52:27.766Z,2.90
2022-07-28T11:54:57.237Z,2.63
2022-07-28T11:57:28.692Z,2.67
2022-07-28T12:00:02.446Z,2.63
2022-07-28T12:02:31.856Z,2.60
2022-07-28T12:05:09.457Z,2.80
2022-07-28T12:07:45.461Z,2.67
2022-07-28T12:13:27.146Z,2.30
2022-07-28T12:15:56.861Z,2.70
2022-07-28T12:18:25.326Z,2.90
2022-07-28T12:20:54.948Z,2.33
2022-07-28T12:23:45.664Z,2.60
2022-07-28T12:26:31.208Z,2.50
2022-07-28T12:29:00.262Z,2.85
2022-07-28T12:31:33.281Z,2.65
2022-07-28T12:34:01.817Z,2.78
2022-07-28T12:36:30.287Z,2.22
2022-07-28T12:38:58.457Z,2.47
2022-07-28T12:41:31.251Z,2.40
2022-07-28T12:43:59.398Z,2.50
2022-07-28T12:46:28.435Z,2.53
2022-07-28T12:48:58.799Z,3.13
2022-07-28T12:51:34.404Z,3.13
2022-07-28T12:54:02.675Z,2.30
2022-07-28T12:56:31.023Z,2.60
2022-07-28T12:59:06.744Z,2.63
2022-07-28T13:01:51.412Z,2.40
2022-07-28T13:04:43.917Z,2.20
2022-07-28T13:07:13.246Z,2.78
2022-07-28T13:09:49.047Z,2.28
2022-07-28T13:12:23.900Z,2.40
2022-07-28T13:14:52.962Z,2.15
2022-07-28T13:17:21.402Z,2.05
2022-07-28T13:19:51.188Z,2.30
2022-07-28T13:22:28.860Z,2.45
2022-07-28T13:24:58.093Z,2.38
2022-07-28T13:27:26.560Z,2.42
2022-07-28T13:29:54.883Z,2.15
2022-07-28T13:32:23.478Z,2.05
2022-07-28T13:34:53.106Z,2.20
2022-07-28T13:37:21.324Z,2.10
2022-07-28T13:39:54.234Z,2.45
2022-07-28T13:42:23.781Z,2.40
2022-07-28T13:44:52.341Z,2.20
2022-07-28T13:47:20.987Z,2.40
2022-07-28T13:49:49.439Z,1.90
2022-07-28T13:52:29.347Z,2.17
2022-07-28T13:55:04.146Z,2.22
2022-07-28T13:57:35.057Z,1.98
2022-07-28T14:00:07.597Z,2.22
2022-07-28T14:02:36.646Z,2.13
2022-07-28T14:05:05.708Z,2.00
2022-07-28T14:07:35.448Z,2.30
2022-07-28T14:10:06.882Z,2.20
2022-07-28T14:12:37.616Z,2.00
2022-07-28T14:15:09.860Z,2.08
2022-07-28T14:17:43.920Z,1.95
2022-07-28T14:20:14.769Z,2.20
2022-07-28T14:22:44.527Z,2.10
2022-07-28T14:25:21.063Z,2.10
2022-07-28T14:27:50.734Z,2.38
2022-07-28T14:30:19.357Z,2.38
2022-07-28T14:32:47.640Z,2.40
2022-07-28T14:35:16.007Z,2.50
2022-07-28T14:40:33.928Z,2.13
2022-07-28T14:43:07.620Z,2.10
2022-07-28T14:45:51.402Z,2.10
2022-07-28T14:48:24.287Z,2.13
2022-07-28T14:50:55.686Z,2.50
2022-07-28T14:53:28.195Z,2.40
2022-07-28T14:55:56.988Z,2.55
2022-07-28T14:58:25.922Z,2.47
2022-07-28T15:00:54.674Z,2.40
2022-07-28T15:03:23.148Z,2.20
2022-07-28T15:05:51.620Z,2.28
2022-07-28T15:08:20.038Z,2.03
2022-07-28T15:10:55.521Z,2.30
2022-07-28T15:13:23.755Z,2.45
2022-07-28T15:15:52.163Z,2.28
2022-07-28T15:18:20.437Z,2.08
2022-07-28T15:20:49.946Z,1.92
2022-07-28T15:23:18.201Z,2.00
2022-07-28T15:25:47.597Z,2.30
2022-07-28T15:28:17.542Z,2.15
2022-07-28T15:30:51.914Z,2.25
2022-07-28T15:33:21.385Z,1.85
2022-07-28T15:35:57.927Z,2.28
2022-07-28T15:38:28.605Z,1.83
2022-07-28T15:40:58.743Z,2.53
2022-07-28T15:43:28.830Z,2.33
2022-07-28T15:45:57.607Z,2.40
2022-07-28T15:48:25.928Z,2.22
2022-07-28T15:50:54.257Z,2.33
2022-07-28T15:53:22.568Z,2.45
2022-07-28T15:55:51.488Z,2.22
2022-07-28T15:58:20.489Z,2.40
2022-07-28T16:00:50.132Z,2.30
2022-07-28T16:03:18.439Z,2.42
2022-07-28T16:05:49.674Z,2.65
2022-07-28T16:08:18.328Z,2.55
2022-07-28T16:10:51.591Z,2.40
2022-07-28T16:13:35.640Z,2.67
2022-07-28T16:16:07.471Z,2.20
2022-07-28T16:18:36.586Z,2.08
2022-07-28T16:21:05.000Z,2.33
2022-07-28T16:23:33.192Z,2.58
2022-07-28T16:26:01.420Z,1.83
2022-07-28T16:28:29.657Z,2.10
2022-07-28T16:30:58.012Z,2.50
2022-07-28T16:33:27.615Z,2.42
2022-07-28T16:36:01.607Z,2.10
2022-07-28T16:38:29.862Z,2.25
2022-07-28T16:40:58.334Z,2.53
2022-07-28T16:43:26.716Z,2.17
2022-07-28T16:45:55.119Z,2.63
2022-07-28T16:48:23.349Z,2.60
2022-07-28T16:50:54.009Z,2.58
2022-07-28T16:53:22.239Z,2.53
2022-07-28T16:55:50.601Z,2.50
2022-07-28T16:58:20.121Z,2.90
2022-07-28T17:00:48.425Z,2.20
2022-07-28T17:03:17.125Z,3.00
2022-07-28T17:05:45.663Z,2.80
2022-07-28T17:08:15.471Z,2.40
2022-07-28T17:10:45.203Z,2.80
2022-07-28T17:13:13.441Z,2.70
2022-07-28T17:15:41.768Z,2.38
2022-07-28T17:18:12.297Z,2.47
2022-07-28T17:20:42.070Z,2.33
2022-07-28T17:23:10.419Z,2.10
2022-07-28T17:25:59.527Z,2.33
2022-07-28T17:28:28.583Z,2.00
2022-07-28T17:33:38.934Z,2.28
2022-07-28T17:36:07.597Z,2.30
2022-07-28T17:38:35.771Z,2.10
2022-07-28T17:41:07.653Z,2.33
2022-07-28T17:43:36.695Z,2.47
2022-07-28T17:46:08.283Z,2.72
2022-07-28T17:48:39.156Z,2.55
2022-07-28T17:51:07.426Z,2.30
2022-07-28T17:53:39.527Z,2.30
2022-07-28T17:56:09.398Z,2.45
2022-07-28T17:58:38.779Z,2.40
2022-07-28T18:01:12.142Z,2.40
2022-07-28T18:03:56.644Z,2.38
2022-07-28T18:06:29.504Z,2.40
2022-07-28T18:08:58.842Z,2.10
2022-07-28T18:11:55.324Z,2.35
2022-07-28T18:14:24.952Z,2.30
2022-07-28T18:16:53.155Z,2.42
2022-07-28T18:19:21.341Z,2.45
2022-07-28T18:21:49.880Z,2.10
2022-07-28T18:24:18.590Z,2.28
2022-07-28T18:26:48.606Z,2.00
2022-07-28T18:29:17.820Z,2.13
2022-07-28T18:31:47.116Z,2.05
2022-07-28T18:34:16.149Z,2.35
2022-07-28T18:36:44.631Z,2.30
2022-07-28T18:39:12.836Z,2.20
2022-07-28T18:41:46.209Z,2.17
2022-07-28T18:44:17.503Z,2.30
2022-07-28T18:46:46.014Z,2.53
2022-07-28T18:49:14.427Z,2.47
2022-07-28T18:51:44.925Z,2.70
2022-07-28T18:54:16.483Z,2.78
2022-07-28T18:56:48.418Z,2.25
2022-07-28T18:59:18.039Z,2.30
2022-07-28T19:01:46.407Z,2.70
2022-07-28T19:04:14.843Z,2.20
2022-07-28T19:06:43.381Z,2.60
2022-07-28T19:09:11.556Z,2.70
2022-07-28T19:11:45.268Z,2.22
2022-07-28T19:14:14.723Z,2.55
2022-07-28T19:16:44.589Z,2.75
2022-07-28T19:19:13.118Z,2.75
2022-07-28T19:21:43.105Z,2.85
2022-07-28T19:24:12.381Z,3.35
2022-07-28T19:26:41.359Z,3.40
2022-07-28T19:29:09.595Z,3.67
2022-07-28T19:31:37.881Z,4.18
2022-07-28T19:34:07.586Z,3.70
2022-07-28T19:36:37.708Z,4.05
2022-07-28T19:39:05.991Z,4.28
2022-07-28T19:41:34.493Z,3.80
2022-07-28T19:44:02.773Z,3.65
2022-07-28T19:46:31.253Z,4.03
2022-07-28T19:48:59.671Z,3.92
2022-07-28T19:51:29.389Z,3.65
2022-07-28T19:53:59.457Z,3.70
2022-07-28T19:56:31.586Z,3.92
2022-07-28T19:59:00.046Z,3.78
2022-07-28T20:01:28.671Z,3.33
2022-07-28T20:04:01.282Z,3.20
2022-07-28T20:06:32.332Z,3.45
2022-07-28T20:09:00.607Z,3.50
2022-07-28T20:11:28.836Z,3.42
2022-07-28T20:13:56.994Z,3.10
2022-07-28T20:16:25.662Z,3.10
2022-07-28T20:18:53.924Z,3.03
2022-07-28T20:21:24.127Z,2.97
2022-07-28T20:23:54.193Z,3.13
2022-07-28T20:26:24.026Z,2.83
2022-07-28T20:28:52.323Z,2.75
2022-07-28T20:31:21.098Z,2.70
2022-07-28T20:33:49.387Z,3.07
2022-07-28T20:36:17.723Z,2.63
2022-07-28T20:38:46.358Z,2.87
2022-07-28T20:41:16.480Z,2.40
2022-07-28T20:43:44.809Z,3.10
2022-07-28T20:46:13.171Z,3.27
2022-07-28T20:48:41.423Z,2.60
2022-07-28T20:51:09.690Z,3.03
2022-07-28T20:53:38.432Z,2.97
2022-07-28T20:56:06.928Z,3.40
2022-07-28T20:58:36.571Z,3.20
2022-07-28T21:01:04.841Z,3.50
2022-07-28T21:03:33.305Z,3.70
2022-07-28T21:06:01.527Z,3.67
2022-07-28T21:08:31.096Z,3.40
2022-07-28T21:10:59.320Z,3.30
2022-07-28T21:13:27.465Z,3.50
2022-07-28T21:15:57.075Z,3.57
2022-07-28T21:18:25.247Z,3.80
2022-07-28T21:20:53.509Z,3.73
2022-07-28T21:23:21.769Z,3.20
2022-07-28T21:25:51.619Z,3.87
2022-07-28T21:28:37.093Z,3.50
2022-07-28T21:31:07.800Z,3.00
2022-07-28T21:33:36.030Z,3.37
2022-07-28T21:36:04.755Z,3.30
2022-07-28T21:38:32.945Z,2.73
2022-07-28T21:41:01.179Z,3.20
2022-07-28T21:43:29.572Z,3.07
2022-07-28T21:45:57.886Z,3.20
2022-07-28T21:48:27.525Z,3.63
2022-07-28T21:50:56.053Z,3.47
2022-07-28T21:53:24.261Z,3.37
2022-07-28T21:55:53.097Z,4.33
2022-07-28T21:58:21.301Z,3.43
2022-07-28T22:00:49.584Z,3.47
2022-07-28T22:03:17.835Z,3.73
2022-07-28T22:05:47.460Z,4.40
2022-07-28T22:08:15.629Z,3.87
2022-07-28T22:10:43.907Z,4.50
2022-07-28T22:13:12.116Z,4.40
2022-07-28T22:15:40.486Z,5.37
2022-07-28T22:18:11.056Z,4.20
2022-07-28T22:20:43.089Z,4.77
2022-07-28T22:23:17.992Z,4.63
2022-07-28T22:25:57.565Z,4.03
2022-07-28T22:28:29.890Z,5.03
2022-07-28T22:30:59.045Z,3.83
2022-07-28T22:33:38.258Z,3.80
2022-07-28T22:36:07.149Z,3.63
2022-07-28T22:38:36.703Z,4.00
2022-07-28T22:41:05.043Z,3.30
2022-07-28T22:43:33.530Z,3.97
2022-07-28T22:46:01.883Z,3.60
2022-07-28T22:48:30.008Z,3.60
2022-07-28T22:50:58.308Z,3.57
2022-07-28T22:53:26.461Z,4.23
2022-07-28T22:58:42.082Z,3.60
2022-07-28T23:01:10.465Z,3.43
2022-07-28T23:03:38.987Z,3.67
2022-07-28T23:06:07.418Z,3.13
2022-07-28T23:08:35.735Z,3.60
2022-07-28T23:11:06.168Z,3.53
2022-07-28T23:13:34.549Z,3.50
2022-07-28T23:16:02.973Z,3.13
2022-07-28T23:18:31.515Z,3.23
2022-07-28T23:20:59.873Z,3.23
2022-07-28T23:23:28.145Z,3.67
2022-07-28T23:25:56.525Z,3.87
2022-07-28T23:28:26.224Z,4.20
2022-07-28T23:30:54.624Z,3.70
2022-07-28T23:33:56.665Z,3.80
2022-07-28T23:36:25.983Z,3.90
2022-07-28T23:38:55.485Z,3.90
2022-07-28T23:41:23.869Z,4.40
2022-07-28T23:43:53.602Z,4.40
2022-07-28T23:46:22.333Z,4.20
2022-07-28T23:48:50.896Z,4.30
2022-07-28T23:51:19.331Z,3.97
2022-07-28T23:53:48.570Z,3.43
2022-07-28T23:56:19.154Z,3.67
2022-07-28T23:58:47.484Z,3.73
